Time;durP1;ratioP1;P1;durP2;ratioP2;P2;SDS_P1;SDS_P2;PMS_P1;PMS_P2;Temp;Humidity;BMP_temperature;BMP_pressure;BME280_temperature;BME280_humidity;BME280_pressure;Samples;Min_cycle;Max_cycle;Signal;HPM_P1;HPM_P2
2021/11/20 00:01:00;;;;;;;10.75;4.20;;;;;;;19.38;42.35;102595.38;5075514;28;20025;-75
2021/11/20 00:03:27;;;;;;;7.88;2.90;;;;;;;19.47;42.24;102593.38;5075157;28;20024;-76
2021/11/20 00:05:54;;;;;;;6.35;2.78;;;;;;;19.47;42.22;102590.63;5075134;28;20104;-76
2021/11/20 00:08:22;;;;;;;8.25;3.22;;;;;;;19.47;42.27;102582.31;5075150;28;20028;-76
2021/11/20 00:10:51;;;;;;;7.18;3.50;;;;;;;19.49;42.21;102595.81;5075229;28;20044;-76
2021/11/20 00:13:17;;;;;;;6.20;3.58;;;;;;;19.50;42.31;102589.16;5075110;28;20025;-76
2021/11/20 00:15:48;;;;;;;7.22;3.47;;;;;;;19.45;42.35;102590.13;5074955;28;20069;-76
2021/11/20 00:18:15;;;;;;;7.43;2.88;;;;;;;19.51;42.22;102588.03;5073703;28;20383;-76
2021/11/20 00:20:48;;;;;;;7.60;3.75;;;;;;;19.68;41.90;102588.00;5073770;28;20418;-76
2021/11/20 00:23:17;;;;;;;15.60;4.10;;;;;;;19.51;42.22;102580.50;5075051;28;20054;-76
2021/11/20 00:25:50;;;;;;;6.03;3.03;;;;;;;19.40;42.60;102580.03;5074868;28;20016;-76
2021/11/20 00:28:21;;;;;;;11.68;4.40;;;;;;;19.27;42.82;102578.28;5074831;28;20028;-76
2021/11/20 00:31:05;;;;;;;6.85;3.60;;;;;;;19.24;42.93;102576.13;5073234;28;20510;-76
2021/11/20 00:33:32;;;;;;;5.25;3.28;;;;;;;19.36;42.66;102576.31;5074712;28;20032;-76
2021/11/20 00:36:00;;;;;;;8.95;3.47;;;;;;;19.36;42.77;102569.94;5073935;28;20638;-76
2021/11/20 00:38:27;;;;;;;6.57;2.65;;;;;;;19.41;42.74;102572.53;5074634;28;20027;-76
2021/11/20 00:41:17;;;;;;;6.15;3.22;;;;;;;19.34;42.81;102556.38;5074534;28;20085;-76
2021/11/20 00:43:45;;;;;;;6.47;3.90;;;;;;;19.40;42.89;102551.50;5074506;28;20060;-76
2021/11/20 00:46:12;;;;;;;6.82;3.22;;;;;;;19.29;42.95;102550.22;5074456;28;20052;-76
2021/11/20 00:48:39;;;;;;;5.55;3.53;;;;;;;19.33;42.92;102553.94;5074359;28;20036;-76
2021/11/20 00:51:08;;;;;;;5.35;4.20;;;;;;;19.34;42.91;102552.81;5074268;28;20039;-76
2021/11/20 00:53:35;;;;;;;6.90;3.85;;;;;;;19.45;42.74;102556.06;5074194;28;20036;-77
2021/11/20 00:56:01;;;;;;;8.05;3.78;;;;;;;19.41;42.76;102550.34;5072904;28;20029;-76
2021/11/20 00:58:27;;;;;;;10.80;3.78;;;;;;;19.47;42.50;102560.13;5072928;28;20021;-76
2021/11/20 01:00:56;;;;;;;8.02;3.70;;;;;;;19.49;42.74;102552.28;5074122;28;20032;-77
2021/11/20 01:03:23;;;;;;;8.00;3.70;;;;;;;19.52;42.73;102542.50;5072755;28;20031;-76
2021/11/20 01:05:50;;;;;;;6.40;3.45;;;;;;;19.51;42.70;102543.66;5073787;28;20273;-77
2021/11/20 01:08:19;;;;;;;8.55;3.75;;;;;;;19.53;42.50;102544.94;5072749;28;20429;-77
2021/11/20 01:10:51;;;;;;;10.25;3.38;;;;;;;19.56;42.63;102544.28;5074138;28;20032;-77
2021/11/20 01:13:17;;;;;;;4.28;2.92;;;;;;;19.54;42.64;102537.44;5074016;28;20029;-76
2021/11/20 01:15:55;;;;;;;4.18;3.00;;;;;;;19.58;42.34;102532.91;5073935;28;20028;-76
2021/11/20 01:18:23;;;;;;;8.98;3.20;;;;;;;19.61;42.32;102537.78;5073776;28;20368;-77
2021/11/20 01:20:50;;;;;;;8.27;3.30;;;;;;;19.64;42.21;102526.81;5073913;28;20029;-76
2021/11/20 01:23:19;;;;;;;7.07;3.28;;;;;;;19.67;42.30;102536.47;5073823;28;20074;-76
2021/11/20 01:25:45;;;;;;;4.97;2.50;;;;;;;19.65;42.20;102530.44;5072426;28;20024;-76
2021/11/20 01:28:12;;;;;;;3.67;2.30;;;;;;;19.61;42.09;102521.97;5073572;28;20035;-76
2021/11/20 01:30:39;;;;;;;3.60;1.92;;;;;;;19.54;42.30;102518.84;5071981;28;20484;-76
2021/11/20 01:33:05;;;;;;;6.10;2.50;;;;;;;19.54;42.06;102515.25;5073534;28;20039;-76
2021/11/20 01:35:31;;;;;;;4.38;2.28;;;;;;;19.53;41.83;102521.97;5073449;28;20029;-76
2021/11/20 01:37:57;;;;;;;4.22;2.05;;;;;;;19.55;41.68;102519.66;5073494;28;20441;-76
2021/11/20 01:40:27;;;;;;;4.32;2.10;;;;;;;19.62;41.71;102522.75;5073361;28;20035;-76
2021/11/20 01:42:53;;;;;;;3.53;2.13;;;;;;;19.55;41.64;102528.78;5072111;28;20039;-76
2021/11/20 01:45:24;;;;;;;3.70;2.53;;;;;;;19.53;41.43;102527.50;5073223;28;20483;-76
2021/11/20 01:48:35;;;;;;;3.30;2.25;;;;;;;19.52;41.52;102521.16;5072189;28;20037;-76
2021/11/20 01:51:20;;;;;;;3.80;2.25;;;;;;;19.50;41.25;102525.41;5072602;28;20037;-76
2021/11/20 01:54:10;;;;;;;3.28;2.33;;;;;;;19.57;41.22;102518.22;5073127;28;20020;-76
2021/11/20 01:56:44;;;;;;;2.65;1.77;;;;;;;19.57;40.96;102520.16;5073193;28;20031;-76
2021/11/20 01:59:25;;;;;;;4.75;1.95;;;;;;;19.66;40.98;102512.66;5073023;28;20036;-76
2021/11/20 02:01:57;;;;;;;3.05;2.10;;;;;;;19.60;40.92;102517.56;5073057;28;20049;-76
2021/11/20 02:04:33;;;;;;;2.10;1.52;;;;;;;19.70;40.87;102507.25;5073079;28;20052;-76
2021/11/20 02:07:09;;;;;;;4.38;2.00;;;;;;;19.72;40.72;102508.53;5072937;28;20075;-76
2021/11/20 02:09:55;;;;;;;2.55;1.40;;;;;;;19.76;40.77;102503.16;5072831;28;20110;-76
2021/11/20 02:12:28;;;;;;;3.35;1.95;;;;;;;19.79;40.73;102508.81;5072813;28;20036;-76
2021/11/20 02:14:54;;;;;;;3.08;1.58;;;;;;;19.83;40.64;102509.00;5072821;28;20064;-76
2021/11/20 02:17:34;;;;;;;1.60;1.10;;;;;;;19.82;40.68;102497.09;5072778;28;20072;-76
2021/11/20 02:20:07;;;;;;;2.40;1.50;;;;;;;19.85;40.54;102501.13;5073009;28;20063;-76
2021/11/20 02:22:35;;;;;;;2.88;2.00;;;;;;;19.87;40.64;102494.09;5072682;28;20036;-76
2021/11/20 02:25:01;;;;;;;5.78;1.55;;;;;;;19.89;40.42;102493.78;5071344;28;20410;-76
2021/11/20 02:27:29;;;;;;;3.20;1.27;;;;;;;19.88;40.50;102492.97;5072839;28;20028;-76
2021/11/20 02:30:14;;;;;;;5.10;1.45;;;;;;;19.87;40.45;102494.09;5072420;28;20044;-76
2021/11/20 02:32:40;;;;;;;4.07;2.08;;;;;;;19.89;40.44;102489.06;5072527;28;20535;-76
2021/11/20 02:35:08;;;;;;;2.38;1.33;;;;;;;19.89;40.44;102485.47;5072585;28;20024;-76
2021/11/20 02:37:34;;;;;;;2.95;1.58;;;;;;;19.91;40.33;102474.84;5072519;28;20028;-76
2021/11/20 02:39:59;;;;;;;2.10;1.50;;;;;;;19.88;40.50;102472.75;5072518;28;20032;-76
2021/11/20 02:42:26;;;;;;;5.03;1.55;;;;;;;19.91;40.37;102466.53;5072758;28;20021;-76
2021/11/20 02:44:52;;;;;;;3.38;1.30;;;;;;;19.92;40.40;102468.94;5072412;28;20544;-76
2021/11/20 02:47:28;;;;;;;2.00;1.40;;;;;;;19.92;40.69;102465.38;5072480;28;20025;-76
2021/11/20 02:49:54;;;;;;;1.67;0.88;;;;;;;19.90;40.47;102462.94;5072490;28;20032;-76
2021/11/20 02:52:22;;;;;;;2.47;0.80;;;;;;;19.88;40.70;102459.69;5072302;28;20033;-76
2021/11/20 02:54:48;;;;;;;0.90;0.73;;;;;;;19.92;40.71;102460.63;5072364;28;20031;-76
2021/11/20 02:57:18;;;;;;;4.13;1.20;;;;;;;19.92;40.61;102446.75;5072310;28;20064;-76
2021/11/20 02:59:44;;;;;;;2.05;1.10;;;;;;;19.95;40.62;102448.88;5075376;28;20040;-76
2021/11/20 03:02:11;;;;;;;1.15;0.90;;;;;;;19.97;40.73;102442.19;5076496;28;20477;-76
2021/11/20 03:04:37;;;;;;;4.57;2.28;;;;;;;19.96;40.60;102438.59;5076354;28;20025;-76
2021/11/20 03:07:02;;;;;;;2.13;1.20;;;;;;;19.98;40.77;102430.75;5076377;28;20417;-76
2021/11/20 03:09:31;;;;;;;2.20;1.02;;;;;;;19.95;40.85;102426.69;5076280;28;20039;-76
2021/11/20 03:11:59;;;;;;;1.90;0.93;;;;;;;19.97;40.86;102419.97;5076216;28;20024;-76
2021/11/20 03:14:25;;;;;;;3.42;0.93;;;;;;;19.98;40.84;102408.53;5076135;28;20126;-76
2021/11/20 03:17:02;;;;;;;2.17;1.30;;;;;;;19.85;41.18;102409.59;5076428;28;20098;-76
2021/11/20 03:19:31;;;;;;;4.28;1.48;;;;;;;19.92;40.93;102405.16;5076123;28;20024;-76
2021/11/20 03:22:20;;;;;;;2.65;1.00;;;;;;;19.90;41.04;102404.69;5076113;28;20054;-76
2021/11/20 03:24:46;;;;;;;2.97;1.40;;;;;;;19.92;41.02;102399.59;5074842;28;20032;-76
2021/11/20 03:27:12;;;;;;;2.97;1.05;;;;;;;19.93;41.00;102400.41;5075889;28;20265;-76
2021/11/20 03:29:38;;;;;;;4.03;1.30;;;;;;;19.92;40.95;102396.81;5075718;28;20037;-76
2021/11/20 03:32:04;;;;;;;2.08;1.30;;;;;;;19.90;41.05;102385.25;5075840;28;20025;-76
2021/11/20 03:34:31;;;;;;;3.25;1.50;;;;;;;19.98;40.90;102388.31;5075808;28;20114;-76
2021/11/20 03:36:57;;;;;;;2.30;1.30;;;;;;;19.93;40.94;102367.94;5075736;28;20074;-77
2021/11/20 03:39:23;;;;;;;2.40;1.50;;;;;;;19.91;41.01;102361.91;5075676;28;20505;-76
2021/11/20 03:41:49;;;;;;;2.92;1.45;;;;;;;19.91;41.08;102358.34;5075614;28;20110;-76
2021/11/20 03:44:14;;;;;;;2.28;1.27;;;;;;;19.94;40.82;102352.91;5075559;28;20028;-76
2021/11/20 03:46:42;;;;;;;2.70;1.20;;;;;;;19.94;40.92;102352.09;5075633;28;20035;-76
2021/11/20 03:49:08;;;;;;;3.20;1.90;;;;;;;19.91;41.00;102358.34;5075507;28;20464;-77
2021/11/20 03:51:34;;;;;;;3.35;1.52;;;;;;;19.84;41.08;102356.09;5074054;28;20025;-76
2021/11/20 03:54:01;;;;;;;2.72;1.38;;;;;;;19.78;41.03;102349.09;5075416;28;20032;-76
2021/11/20 03:56:27;;;;;;;3.05;1.30;;;;;;;19.75;41.29;102349.78;5075353;28;20024;-76
2021/11/20 03:58:53;;;;;;;2.30;1.27;;;;;;;19.75;41.15;102362.84;5075334;28;20518;-76
2021/11/20 04:01:22;;;;;;;2.83;1.10;;;;;;;19.68;41.44;102360.59;5075519;28;20044;-76
2021/11/20 04:03:48;;;;;;;2.50;1.40;;;;;;;19.75;41.16;102368.41;5075312;28;20025;-76
2021/11/20 04:06:18;;;;;;;1.40;1.10;;;;;;;19.70;41.35;102363.84;5075568;28;20081;-76
2021/11/20 04:08:47;;;;;;;1.63;0.88;;;;;;;19.74;41.06;102364.81;5075206;28;20103;-76
2021/11/20 04:11:16;;;;;;;5.32;1.40;;;;;;;19.75;41.03;102362.84;5073976;28;20471;-76
2021/11/20 04:13:43;;;;;;;1.52;0.98;;;;;;;19.65;41.17;102358.53;5075193;28;20056;-76
2021/11/20 04:16:11;;;;;;;2.40;1.38;;;;;;;19.75;40.92;102349.78;5075106;28;20033;-77
2021/11/20 04:18:38;;;;;;;2.10;1.20;;;;;;;19.75;40.97;102354.53;5075110;28;20413;-76
2021/11/20 04:21:04;;;;;;;1.65;1.00;;;;;;;19.74;40.82;102353.72;5075249;28;20024;-76
2021/11/20 04:23:30;;;;;;;1.52;0.90;;;;;;;19.72;40.79;102350.44;5074906;28;20051;-76
2021/11/20 04:25:56;;;;;;;1.83;1.10;;;;;;;19.72;40.86;102342.13;5075361;28;20370;-76
2021/11/20 04:28:22;;;;;;;4.47;1.45;;;;;;;19.75;40.89;102349.78;5074804;28;20025;-76
2021/11/20 04:30:48;;;;;;;3.55;1.15;;;;;;;19.78;40.70;102342.75;5074562;28;20047;-76
2021/11/20 04:33:16;;;;;;;2.17;1.00;;;;;;;19.79;40.70;102339.63;5074723;28;20029;-76
2021/11/20 04:35:42;;;;;;;3.80;1.20;;;;;;;19.78;40.68;102340.78;5074761;28;20048;-76
2021/11/20 04:38:09;;;;;;;3.58;1.58;;;;;;;19.74;40.70;102339.84;5074844;28;20461;-76
2021/11/20 04:40:36;;;;;;;1.92;0.95;;;;;;;19.75;40.63;102340.66;5074645;28;20108;-76
2021/11/20 04:43:02;;;;;;;2.28;0.95;;;;;;;19.66;40.82;102346.28;5074586;28;20575;-76
2021/11/20 04:45:32;;;;;;;3.47;1.33;;;;;;;19.66;40.63;102336.00;5074536;28;20042;-76
2021/11/20 04:47:58;;;;;;;2.42;1.27;;;;;;;19.72;40.48;102330.22;5074488;28;20044;-76
2021/11/20 04:50:25;;;;;;;2.08;1.00;;;;;;;19.67;40.71;102334.84;5074058;28;20060;-77
2021/11/20 04:52:51;;;;;;;2.53;1.38;;;;;;;19.70;40.57;102325.03;5073033;28;20033;-77
2021/11/20 04:55:18;;;;;;;3.33;1.17;;;;;;;19.65;40.76;102323.28;5074360;28;20395;-76
2021/11/20 04:57:44;;;;;;;2.50;1.13;;;;;;;19.64;40.81;102321.63;5073017;28;20123;-76
2021/11/20 05:00:12;;;;;;;6.18;1.27;;;;;;;19.61;40.65;102330.63;5074166;28;20029;-76
2021/11/20 05:02:39;;;;;;;2.05;0.90;;;;;;;19.81;40.26;102323.50;5074146;28;20169;-77
2021/11/20 05:05:05;;;;;;;2.08;1.00;;;;;;;19.84;40.09;102314.47;5074082;28;20055;-76
2021/11/20 05:07:31;;;;;;;2.35;0.88;;;;;;;19.81;40.17;102315.19;5074070;28;20173;-77
2021/11/20 05:09:58;;;;;;;2.08;0.93;;;;;;;19.81;40.21;102309.63;5074040;28;20574;-76
2021/11/20 05:12:24;;;;;;;2.35;1.02;;;;;;;19.81;40.08;102319.91;5073897;28;20044;-76
2021/11/20 05:14:49;;;;;;;2.08;1.13;;;;;;;19.88;40.16;102314.63;5073910;28;20035;-76
2021/11/20 05:17:15;;;;;;;4.93;0.82;;;;;;;19.87;39.98;102319.34;5073815;28;20025;-76
2021/11/20 05:19:41;;;;;;;1.80;1.00;;;;;;;19.89;40.16;102314.28;5073720;28;20028;-77
2021/11/20 05:22:06;;;;;;;2.53;0.93;;;;;;;19.90;39.82;102323.41;5073499;28;20083;-76
2021/11/20 05:24:32;;;;;;;2.10;0.90;;;;;;;19.83;40.06;102323.16;5073851;28;20020;-77
2021/11/20 05:27:00;;;;;;;2.03;0.82;;;;;;;19.87;40.05;102313.78;5073651;28;20530;-77
2021/11/20 05:31:57;;;;;;;2.58;1.15;;;;;;;19.79;40.13;102305.53;5073479;28;20024;-76
2021/11/20 05:34:23;;;;;;;2.92;1.40;;;;;;;19.90;39.92;102307.59;5073505;28;20356;-77
2021/11/20 05:36:49;;;;;;;3.55;1.75;;;;;;;19.86;40.04;102312.19;5072256;28;20100;-77
2021/11/20 05:39:14;;;;;;;2.42;1.25;;;;;;;19.81;40.16;102315.19;5073378;28;20082;-77
2021/11/20 05:41:40;;;;;;;4.00;1.38;;;;;;;19.87;40.05;102316.56;5073376;28;20108;-77
2021/11/20 05:44:08;;;;;;;3.28;1.52;;;;;;;19.89;40.05;102316.25;5072072;28;20023;-77
2021/11/20 05:46:33;;;;;;;3.50;1.20;;;;;;;19.80;40.17;102310.78;5073299;28;20044;-77
2021/11/20 05:48:59;;;;;;;2.72;1.17;;;;;;;19.82;40.32;102304.88;5073141;28;20379;-77
2021/11/20 05:51:25;;;;;;;3.40;1.30;;;;;;;19.66;40.60;102307.44;5071803;28;20043;-76
2021/11/20 05:53:51;;;;;;;4.13;1.20;;;;;;;19.85;40.15;102310.56;5073517;28;20116;-77
2021/11/20 05:56:18;;;;;;;5.07;1.25;;;;;;;19.88;40.15;102309.91;5073094;28;20569;-76
2021/11/20 05:58:43;;;;;;;2.25;1.20;;;;;;;19.93;40.21;102306.09;5073053;28;20029;-76
2021/11/20 06:01:12;;;;;;;3.30;2.03;;;;;;;19.93;40.01;102300.53;5073031;28;20028;-76
2021/11/20 06:03:38;;;;;;;4.72;1.20;;;;;;;19.93;40.10;102301.34;5073129;28;20031;-76
2021/11/20 06:06:05;;;;;;;3.25;1.45;;;;;;;19.93;39.90;102301.34;5073054;28;20055;-76
2021/11/20 06:08:31;;;;;;;4.03;1.98;;;;;;;20.04;39.75;102295.41;5071865;28;20123;-76
2021/11/20 06:10:59;;;;;;;6.35;1.30;;;;;;;20.01;39.83;102299.66;5072790;28;20031;-76
2021/11/20 06:13:26;;;;;;;6.22;1.88;;;;;;;19.98;40.06;102302.31;5072849;28;20519;-76
2021/11/20 06:15:53;;;;;;;3.03;1.52;;;;;;;20.01;40.04;102307.16;5072797;28;20055;-76
2021/11/20 06:18:19;;;;;;;5.55;1.95;;;;;;;19.95;40.08;102293.53;5072798;28;20032;-76
2021/11/20 06:20:48;;;;;;;2.42;2.03;;;;;;;20.06;39.83;102295.88;5071393;28;20024;-75
2021/11/20 06:23:15;;;;;;;3.40;1.88;;;;;;;20.06;39.94;102290.31;5072766;28;20463;-76
2021/11/20 06:25:40;;;;;;;2.92;1.58;;;;;;;20.04;39.95;102296.22;5071370;28;20032;-75
2021/11/20 06:28:06;;;;;;;3.67;1.52;;;;;;;19.99;39.93;102290.88;5072560;28;20031;-76
2021/11/20 06:30:34;;;;;;;4.20;1.70;;;;;;;19.92;40.29;102287.81;5072427;28;20402;-76
2021/11/20 06:32:59;;;;;;;3.78;1.67;;;;;;;19.74;40.72;102292.72;5072241;28;20539;-76
2021/11/20 06:35:28;;;;;;;4.40;1.60;;;;;;;19.85;40.37;102288.38;5072274;28;20033;-75
2021/11/20 06:37:54;;;;;;;2.97;1.40;;;;;;;19.85;40.37;102285.59;5072496;28;20037;-76
2021/11/20 06:40:30;;;;;;;2.63;1.25;;;;;;;19.85;40.04;102279.25;5072461;28;20039;-75
2021/11/20 06:42:58;;;;;;;2.72;1.60;;;;;;;19.73;40.23;102284.75;5072483;28;20028;-76
2021/11/20 06:45:33;;;;;;;3.53;1.42;;;;;;;19.59;40.41;102293.31;5071108;28;20109;-78
2021/11/20 06:47:59;;;;;;;6.07;1.35;;;;;;;19.55;40.57;102279.25;5071590;28;20028;-76
2021/11/20 06:50:27;;;;;;;2.13;0.85;;;;;;;19.57;40.59;102284.50;5072409;28;20415;-76
2021/11/20 06:52:53;;;;;;;2.88;1.17;;;;;;;19.54;40.76;102299.00;5072352;28;20028;-76
2021/11/20 06:55:19;;;;;;;7.43;1.55;;;;;;;19.66;40.36;102299.94;5072300;28;20513;-76
2021/11/20 07:00:28;;;;;;;3.53;1.20;;;;;;;19.48;40.84;102297.59;5072459;28;20028;-77
2021/11/20 07:03:14;;;;;;;1.85;1.17;;;;;;;19.37;41.29;102305.47;5072664;28;20359;-76
2021/11/20 07:05:46;;;;;;;3.47;1.23;;;;;;;19.59;40.78;102296.09;5072346;28;20056;-76
2021/11/20 07:08:14;;;;;;;3.40;1.20;;;;;;;19.68;40.57;102299.59;5072206;28;20431;-77
2021/11/20 07:10:42;;;;;;;2.85;1.50;;;;;;;19.73;40.64;102304.97;5072242;28;20029;-76
2021/11/20 07:13:08;;;;;;;5.05;1.08;;;;;;;19.67;40.76;102298.78;5072151;28;20115;-76
2021/11/20 07:15:34;;;;;;;4.28;1.15;;;;;;;19.69;40.82;102304.00;5072271;28;20036;-76
2021/11/20 07:18:00;;;;;;;4.03;1.45;;;;;;;19.71;40.73;102298.91;5072080;28;20025;-77
2021/11/20 07:20:29;;;;;;;2.63;1.30;;;;;;;19.64;40.81;102287.53;5070758;28;20024;-76
2021/11/20 07:22:55;;;;;;;3.15;1.00;;;;;;;19.48;41.32;102278.97;5072070;28;20039;-76
2021/11/20 07:25:24;;;;;;;3.22;1.02;;;;;;;19.52;41.02;102288.28;5070820;28;20548;-76
2021/11/20 07:27:50;;;;;;;4.22;1.10;;;;;;;19.44;41.26;102282.78;5072002;28;20048;-76
2021/11/20 07:30:17;;;;;;;2.60;1.20;;;;;;;19.39;41.36;102286.56;5071691;28;20041;-81
2021/11/20 07:32:43;;;;;;;3.65;1.30;;;;;;;19.26;41.88;102285.63;5071912;28;20439;-76
2021/11/20 07:35:10;;;;;;;4.47;1.30;;;;;;;19.28;41.61;102286.13;5072088;28;20062;-81
2021/11/20 07:37:36;;;;;;;4.60;1.10;;;;;;;19.33;41.45;102283.16;5070808;28;20432;-76
2021/11/20 07:40:04;;;;;;;3.83;1.52;;;;;;;19.22;41.78;102281.13;5071993;28;20108;-76
2021/11/20 07:42:29;;;;;;;6.40;1.33;;;;;;;19.25;41.60;102291.53;5071932;28;20028;-75
2021/11/20 07:44:59;;;;;;;1.75;0.80;;;;;;;19.09;42.08;102289.31;5071552;28;20402;-75
2021/11/20 07:47:25;;;;;;;5.97;1.63;;;;;;;19.18;41.79;102283.72;5075506;28;20368;-76
2021/11/20 07:49:51;;;;;;;3.17;1.30;;;;;;;19.09;42.31;102283.78;5074166;28;20059;-76
2021/11/20 07:52:16;;;;;;;6.85;1.33;;;;;;;19.13;42.02;102275.63;5074206;28;20060;-76
2021/11/20 07:54:42;;;;;;;6.43;1.50;;;;;;;19.13;42.36;102283.94;5075555;28;20498;-76
2021/11/20 07:57:08;;;;;;;3.60;1.98;;;;;;;19.16;42.27;102290.75;5074131;28;20383;-77
2021/11/20 07:59:34;;;;;;;8.43;2.40;;;;;;;19.06;42.44;102290.00;5075416;28;20028;-78
2021/11/20 08:02:00;;;;;;;3.65;1.30;;;;;;;19.09;42.47;102294.84;5075297;28;20521;-75
2021/11/20 08:04:25;;;;;;;3.40;1.40;;;;;;;19.13;42.29;102295.84;5075548;28;20157;-76
2021/11/20 08:06:51;;;;;;;2.97;1.20;;;;;;;19.13;42.47;102292.25;5075279;28;20390;-75
2021/11/20 08:09:17;;;;;;;6.13;1.98;;;;;;;19.09;42.71;102292.09;5073937;28;20025;-76
2021/11/20 08:11:42;;;;;;;3.88;1.52;;;;;;;18.96;43.13;102287.56;5075088;28;20158;-77
2021/11/20 08:14:08;;;;;;;1.95;0.98;;;;;;;18.79;43.77;102290.44;5075158;28;20025;-77
2021/11/20 08:16:38;;;;;;;5.90;1.50;;;;;;;19.05;43.04;102285.59;5075054;28;20043;-77
2021/11/20 08:19:04;;;;;;;5.65;1.55;;;;;;;18.99;43.35;102286.13;5075088;28;20031;-75
2021/11/20 08:21:30;;;;;;;3.67;1.42;;;;;;;19.08;43.27;102270.25;5074959;28;20036;-76
2021/11/20 08:23:56;;;;;;;4.80;1.48;;;;;;;19.06;43.18;102267.03;5074889;28;20031;-76
2021/11/20 08:26:25;;;;;;;6.93;1.67;;;;;;;18.89;43.40;102270.66;5075127;28;20524;-77
2021/11/20 08:28:50;;;;;;;4.63;1.75;;;;;;;18.83;43.75;102270.06;5074488;28;20475;-79
2021/11/20 08:31:16;;;;;;;3.42;1.20;;;;;;;18.84;43.40;102263.38;5074696;28;20115;-77
2021/11/20 08:33:42;;;;;;;5.93;1.80;;;;;;;18.63;43.83;102272.69;5069462;28;20494;-75
2021/11/20 08:36:11;;;;;;;5.63;1.95;;;;;;;18.66;43.71;102253.50;5067750;28;20020;-80
2021/11/20 08:38:38;;;;;;;3.78;1.73;;;;;;;18.63;43.86;102259.66;5074879;28;20056;-80
2021/11/20 08:41:05;;;;;;;4.15;1.90;;;;;;;18.59;43.82;102264.25;5056948;28;20037;-81
2021/11/20 08:43:30;;;;;;;9.48;2.35;;;;;;;18.52;44.02;102263.97;5054587;28;20108;-83
2021/11/20 08:45:59;;;;;;;5.10;2.08;;;;;;;18.57;44.17;102247.16;5064086;28;20132;-81
2021/11/20 08:48:25;;;;;;;4.30;1.80;;;;;;;18.54;44.12;102237.56;5058515;28;20032;-79
2021/11/20 08:50:55;;;;;;;3.38;1.83;;;;;;;18.40;44.55;102238.91;5054288;28;20029;-79
2021/11/20 08:53:22;;;;;;;4.75;1.63;;;;;;;18.40;44.67;102233.38;5054714;28;20028;-79
2021/11/20 08:55:48;;;;;;;4.13;1.92;;;;;;;18.48;44.52;102235.28;5054197;28;20033;-79
2021/11/20 08:58:13;;;;;;;4.47;1.70;;;;;;;18.54;44.42;102228.44;5053365;28;20067;-78
2021/11/20 09:00:45;;;;;;;10.98;2.63;;;;;;;18.46;44.90;102229.28;5054213;28;20487;-85
2021/11/20 09:03:16;;;;;;;5.35;2.10;;;;;;;18.47;44.92;102217.06;5054546;28;20086;-79
2021/11/20 09:06:03;;;;;;;4.13;1.90;;;;;;;18.25;45.79;102227.22;5054392;28;20021;-83
2021/11/20 09:08:39;;;;;;;4.07;2.15;;;;;;;18.43;45.33;102227.16;5060090;28;20028;-79
2021/11/20 09:11:12;;;;;;;7.18;1.80;;;;;;;18.49;45.39;102217.53;5065962;28;20498;-77
2021/11/20 09:13:52;;;;;;;4.95;1.50;;;;;;;18.39;45.70;102229.78;5065250;28;20077;-82
2021/11/20 09:16:20;;;;;;;5.07;1.65;;;;;;;18.62;44.88;102221.25;5062637;28;20028;-80
2021/11/20 09:18:47;;;;;;;4.75;1.77;;;;;;;18.60;45.14;102221.59;5059251;28;20052;-80
2021/11/20 09:21:15;;;;;;;7.93;2.35;;;;;;;18.60;45.45;102220.78;5062839;28;20489;-86
2021/11/20 09:23:41;;;;;;;5.72;1.70;;;;;;;18.48;45.94;102224.22;5062482;28;20025;-82
2021/11/20 09:26:07;;;;;;;5.35;1.98;;;;;;;18.72;45.20;102235.56;5064690;28;20021;-79
2021/11/20 09:28:35;;;;;;;5.60;1.77;;;;;;;18.85;44.98;102234.53;5058730;28;20021;-80
2021/11/20 09:31:05;;;;;;;5.65;2.65;;;;;;;18.83;45.04;102234.06;5064045;28;20033;-78
2021/11/20 09:33:31;;;;;;;2.53;1.60;;;;;;;18.85;45.21;102234.53;5061351;28;20017;-83
2021/11/20 09:35:57;;;;;;;3.50;1.45;;;;;;;18.95;45.05;102233.34;5063149;28;20027;-79
2021/11/20 09:38:24;;;;;;;4.70;1.55;;;;;;;19.01;45.14;102233.97;5057959;28;20036;-78
2021/11/20 09:41:16;;;;;;;5.53;1.77;;;;;;;19.05;45.12;102229.38;5058886;28;20021;-77
2021/11/20 09:43:59;;;;;;;4.28;1.60;;;;;;;19.12;45.01;102233.25;5046019;28;20043;-81
2021/11/20 09:46:52;;;;;;;4.95;1.45;;;;;;;18.98;45.44;102238.22;5058012;28;20509;-79
2021/11/20 09:49:29;;;;;;;4.57;1.42;;;;;;;18.86;45.77;102224.25;5059072;28;20083;-84
2021/11/20 09:51:57;;;;;;;4.85;1.67;;;;;;;19.20;45.04;102211.38;5059360;28;20044;-83
2021/11/20 09:54:27;;;;;;;6.05;1.85;;;;;;;19.18;45.36;102219.19;5065512;28;20079;-82
2021/11/20 09:57:02;;;;;;;4.85;1.50;;;;;;;19.01;45.82;102206.25;5063740;28;20020;-78
2021/11/20 09:59:35;;;;;;;3.80;1.45;;;;;;;19.07;45.82;102202.97;5062021;28;20107;-84
2021/11/20 10:02:10;;;;;;;4.95;1.42;;;;;;;18.98;45.91;102199.44;5061426;28;20017;-82
2021/11/20 10:04:59;;;;;;;6.18;1.73;;;;;;;19.10;46.20;102198.69;5062221;28;20399;-84
2021/11/20 10:07:27;;;;;;;4.45;1.55;;;;;;;18.83;47.18;102205.56;5033283;28;20028;-84
2021/11/20 10:09:59;;;;;;;5.50;1.55;;;;;;;19.12;46.55;102202.78;5032689;28;20025;-81
2021/11/20 10:13:03;;;;;;;5.75;1.65;;;;;;;19.14;46.57;102196.91;5044561;28;20033;-79
2021/11/20 10:15:35;;;;;;;7.07;2.40;;;;;;;19.17;46.24;102190.69;5061720;28;20496;-78
2021/11/20 10:18:17;;;;;;;2.13;1.30;;;;;;;19.26;46.21;102198.91;5052829;28;20029;-78
2021/11/20 10:20:48;;;;;;;4.55;1.55;;;;;;;18.71;47.50;102197.94;5051451;28;20056;-83
2021/11/20 10:23:38;;;;;;;5.90;1.58;;;;;;;18.92;46.96;102194.44;5051568;28;20025;-84
2021/11/20 10:26:21;;;;;;;3.72;1.67;;;;;;;19.24;46.21;102196.50;5052812;28;20032;-79
2021/11/20 10:29:09;;;;;;;4.22;1.67;;;;;;;19.26;46.19;102187.84;5041981;28;20065;-81
2021/11/20 10:31:48;;;;;;;5.03;1.60;;;;;;;19.19;46.19;102185.59;5033763;28;20848;-78
2021/11/20 10:34:48;;;;;;;3.50;1.50;;;;;;;19.69;45.04;102184.75;5035952;28;21414;-76
2021/11/20 10:37:26;;;;;;;3.58;1.60;;;;;;;19.21;45.95;102177.78;5035280;28;20053;-78
2021/11/20 10:40:17;;;;;;;4.22;1.30;;;;;;;18.97;46.38;102172.09;5042225;28;20532;-79
2021/11/20 10:42:50;;;;;;;3.92;2.17;;;;;;;19.64;45.12;102173.88;5045416;28;20554;-76
2021/11/20 10:45:31;;;;;;;5.03;2.58;;;;;;;19.80;44.68;102174.88;5049122;28;20037;-76
2021/11/20 10:48:05;;;;;;;4.70;1.70;;;;;;;19.28;46.12;102166.97;5050740;28;20045;-81
2021/11/20 10:50:41;;;;;;;7.10;1.75;;;;;;;19.99;44.51;102170.75;5040089;28;20032;-78
2021/11/20 10:53:26;;;;;;;7.15;1.50;;;;;;;19.84;44.99;102173.03;5035730;28;20039;-77
2021/11/20 10:56:03;;;;;;;3.58;1.48;;;;;;;19.85;45.32;102154.41;5033898;28;20120;-85
2021/11/20 10:58:57;;;;;;;3.22;1.10;;;;;;;20.03;44.81;102163.41;5035826;28;20041;-80
2021/11/20 11:01:41;;;;;;;4.18;1.27;;;;;;;20.12;44.45;102161.31;5036588;28;20037;-78
2021/11/20 11:04:39;;;;;;;7.63;1.92;;;;;;;20.05;44.30;102174.94;5035911;28;20082;-77
2021/11/20 11:07:13;;;;;;;6.55;1.60;;;;;;;19.89;44.67;102167.28;5037359;28;20510;-78
2021/11/20 11:09:48;;;;;;;23.20;19.10;;;;;;;19.59;45.50;102158.28;5036662;28;20025;-78
2021/11/20 11:12:39;;;;;;;3.92;1.80;;;;;;;20.01;44.55;102154.59;5036901;28;20036;-78
2021/11/20 11:15:14;;;;;;;4.30;1.30;;;;;;;20.11;44.65;102148.63;5035995;28;20036;-78
2021/11/20 11:17:59;;;;;;;3.10;1.40;;;;;;;20.26;44.17;102139.63;5035585;28;20116;-77
2021/11/20 11:20:36;;;;;;;5.22;1.60;;;;;;;20.24;44.49;102139.94;5036395;28;20037;-77
2021/11/20 11:23:37;;;;;;;8.18;1.88;;;;;;;20.09;44.59;102135.06;5039524;28;20029;-78
2021/11/20 11:26:10;;;;;;;14.65;2.30;;;;;;;20.75;43.60;102139.66;5039816;28;20040;-78
2021/11/20 11:29:31;;;;;;;8.05;1.55;;;;;;;20.66;43.99;102131.44;5039418;28;20072;-78
2021/11/20 11:31:57;;;;;;;5.63;1.85;;;;;;;20.80;43.52;102133.06;5023845;28;20049;-77
2021/11/20 11:34:27;;;;;;;4.25;1.23;;;;;;;20.59;43.85;102130.41;5055942;28;20033;-77
2021/11/20 11:37:15;;;;;;;7.78;1.80;;;;;;;20.62;43.87;102130.50;5055915;28;20025;-80
2021/11/20 11:40:09;;;;;;;3.67;1.17;;;;;;;20.62;44.03;102124.94;5054694;28;20061;-77
2021/11/20 11:42:46;;;;;;;4.07;1.40;;;;;;;20.75;43.88;102111.88;5054575;28;20037;-77
2021/11/20 11:45:38;;;;;;;5.05;1.67;;;;;;;20.95;43.64;102119.25;5048527;28;20041;-78